createdAt,value
2018-10-04T00:02:18.754Z,6.63
2018-10-04T00:04:48.708Z,6.33
2018-10-04T00:07:18.490Z,7.77
2018-10-04T00:09:48.290Z,6.73
2018-10-04T00:12:18.072Z,6.33
2018-10-04T00:14:47.842Z,5.80
2018-10-04T00:17:17.648Z,5.40
2018-10-04T00:19:47.411Z,5.17
2018-10-04T00:22:17.220Z,4.53
2018-10-04T00:24:47.045Z,4.80
2018-10-04T00:27:16.802Z,5.23
2018-10-04T00:29:47.458Z,5.23
2018-10-04T00:32:17.273Z,4.97
2018-10-04T00:34:47.101Z,5.00
2018-10-04T00:37:16.870Z,4.93
2018-10-04T00:39:46.668Z,4.33
2018-10-04T00:42:16.558Z,4.47
2018-10-04T00:44:46.370Z,4.27
2018-10-04T00:47:17.158Z,4.00
2018-10-04T00:49:49.298Z,5.10
2018-10-04T00:52:19.111Z,5.50
2018-10-04T00:54:48.986Z,7.47
2018-10-04T00:57:18.786Z,9.43
2018-10-04T00:59:48.555Z,10.07
2018-10-04T01:02:18.307Z,10.97
2018-10-04T01:04:48.111Z,11.20
2018-10-04T01:07:18.001Z,11.27
2018-10-04T01:09:47.767Z,10.80
2018-10-04T01:12:17.560Z,10.50
2018-10-04T01:14:47.345Z,11.03
2018-10-04T01:17:17.148Z,15.30
2018-10-04T01:19:47.203Z,15.60
2018-10-04T01:22:17.041Z,14.70
2018-10-04T01:24:46.884Z,18.37
2018-10-04T01:27:16.661Z,22.37
2018-10-04T01:29:46.579Z,31.87
2018-10-04T01:32:16.371Z,26.67
2018-10-04T01:34:46.147Z,21.37
2018-10-04T01:37:15.951Z,27.27
2018-10-04T01:39:45.771Z,20.03
2018-10-04T01:42:15.691Z,19.57
2018-10-04T01:44:45.467Z,27.53
2018-10-04T01:47:15.249Z,24.03
2018-10-04T01:49:45.045Z,21.03
2018-10-04T01:52:14.936Z,32.67
2018-10-04T01:54:44.725Z,24.67
2018-10-04T01:57:14.511Z,44.80
2018-10-04T01:59:44.296Z,30.93
2018-10-04T02:02:14.088Z,22.43
2018-10-04T02:04:43.897Z,28.10
2018-10-04T02:07:13.847Z,16.50
2018-10-04T02:09:43.815Z,17.40
2018-10-04T02:12:13.602Z,20.83
2018-10-04T02:14:43.391Z,20.97
2018-10-04T02:17:13.203Z,23.33
2018-10-04T02:19:43.037Z,30.07
2018-10-04T02:22:12.817Z,23.17
2018-10-04T02:24:42.646Z,22.10
2018-10-04T02:27:12.582Z,21.57
2018-10-04T02:29:42.407Z,21.67
2018-10-04T02:32:12.211Z,20.17
2018-10-04T02:34:42.162Z,23.50
2018-10-04T02:37:11.912Z,21.10
2018-10-04T02:39:41.750Z,26.40
2018-10-04T02:42:11.506Z,33.53
2018-10-04T02:44:41.265Z,23.47
2018-10-04T02:47:11.180Z,27.27
2018-10-04T02:49:40.961Z,23.50
2018-10-04T02:52:10.768Z,23.37
2018-10-04T02:54:44.624Z,28.23
2018-10-04T02:57:14.424Z,34.43
2018-10-04T02:59:44.184Z,38.77
2018-10-04T03:02:13.940Z,38.37
2018-10-04T03:04:43.715Z,47.17
2018-10-04T03:07:13.566Z,41.70
2018-10-04T03:09:43.332Z,43.80
2018-10-04T03:12:13.091Z,43.90
2018-10-04T03:14:42.830Z,42.47
2018-10-04T03:17:12.583Z,49.53
2018-10-04T03:19:42.375Z,61.87
2018-10-04T03:22:12.314Z,50.13
2018-10-04T03:24:42.081Z,49.90
2018-10-04T03:27:11.834Z,44.53
2018-10-04T03:29:41.618Z,49.70
2018-10-04T03:32:11.519Z,51.20
2018-10-04T03:34:41.508Z,57.37
2018-10-04T03:37:11.345Z,59.57
2018-10-04T03:39:41.124Z,62.47
2018-10-04T03:42:10.848Z,70.70
2018-10-04T03:44:40.688Z,65.70
2018-10-04T03:47:10.502Z,55.03
2018-10-04T03:49:40.256Z,51.63
2018-10-04T03:52:10.123Z,54.83
2018-10-04T03:54:39.917Z,51.57
2018-10-04T03:57:09.640Z,50.80
2018-10-04T03:59:39.374Z,51.30
2018-10-04T04:02:09.117Z,54.60
2018-10-04T04:04:39.021Z,58.57
2018-10-04T04:07:08.828Z,45.63
2018-10-04T04:09:38.636Z,54.50
2018-10-04T04:12:08.800Z,51.63
2018-10-04T04:14:38.630Z,50.70
2018-10-04T04:17:08.559Z,49.83
2018-10-04T04:19:38.368Z,55.63
2018-10-04T04:22:08.310Z,48.13
2018-10-04T04:24:38.611Z,57.27
2018-10-04T04:27:08.414Z,46.03
2018-10-04T04:29:38.274Z,46.63
2018-10-04T04:32:08.060Z,51.47
2018-10-04T04:34:37.841Z,50.77
2018-10-04T04:37:07.641Z,43.10
2018-10-04T04:39:37.448Z,44.37
2018-10-04T04:42:07.340Z,51.77
2018-10-04T04:44:37.155Z,49.03
2018-10-04T04:47:07.376Z,50.70
2018-10-04T04:49:37.356Z,47.67
2018-10-04T04:52:07.373Z,44.27
2018-10-04T04:55:20.329Z,39.33
2018-10-04T04:57:51.693Z,46.00
2018-10-04T05:00:22.742Z,40.73
2018-10-04T05:02:53.076Z,43.23
2018-10-04T05:05:23.500Z,46.23
2018-10-04T05:07:54.806Z,46.20
2018-10-04T05:10:25.310Z,39.43
2018-10-04T05:12:55.951Z,42.63
2018-10-04T05:15:25.986Z,39.67
2018-10-04T05:17:55.871Z,39.47
2018-10-04T05:20:25.677Z,38.17
2018-10-04T05:22:55.506Z,37.13
2018-10-04T05:25:25.426Z,35.97
2018-10-04T05:27:55.237Z,35.33
2018-10-04T05:30:25.158Z,37.00
2018-10-04T05:32:55.083Z,36.33
2018-10-04T05:35:24.882Z,37.53
2018-10-04T05:37:54.932Z,39.57
2018-10-04T05:40:24.776Z,41.37
2018-10-04T05:42:54.621Z,46.37
2018-10-04T05:45:24.515Z,52.17
2018-10-04T05:47:54.476Z,43.97
2018-10-04T05:50:24.259Z,44.20
2018-10-04T05:52:54.764Z,44.87
2018-10-04T05:55:24.730Z,59.20
2018-10-04T05:57:54.530Z,46.00
2018-10-04T06:00:37.090Z,47.27
2018-10-04T06:03:07.092Z,51.27
2018-10-04T06:05:37.042Z,62.20
2018-10-04T06:08:07.055Z,50.93
2018-10-04T06:10:37.262Z,47.37
2018-10-04T06:13:07.139Z,47.53
2018-10-04T06:15:37.571Z,62.60
2018-10-04T06:18:07.626Z,56.83
2018-10-04T06:20:39.314Z,58.37
2018-10-04T06:23:09.303Z,54.23
2018-10-04T06:25:39.083Z,55.93
2018-10-04T06:28:08.834Z,55.73
2018-10-04T06:30:38.598Z,52.63
2018-10-04T06:33:08.352Z,63.33
2018-10-04T06:35:38.142Z,49.77
2018-10-04T06:38:07.889Z,54.57
2018-10-04T06:40:37.633Z,59.30
2018-10-04T06:43:07.451Z,48.23
2018-10-04T06:45:37.255Z,59.87
2018-10-04T06:48:07.275Z,50.40
2018-10-04T06:50:37.115Z,46.80
2018-10-04T06:53:06.897Z,53.70
2018-10-04T06:55:36.675Z,44.23
2018-10-04T06:58:06.452Z,39.30
2018-10-04T07:00:36.438Z,59.83
2018-10-04T07:03:06.593Z,41.30
2018-10-04T07:05:36.369Z,40.10
2018-10-04T07:08:06.374Z,39.57
2018-10-04T07:10:36.331Z,39.07
2018-10-04T07:13:06.500Z,36.77
2018-10-04T07:15:36.305Z,35.23
2018-10-04T07:18:06.305Z,35.00
2018-10-04T07:20:36.288Z,35.33
2018-10-04T07:23:06.295Z,36.90
2018-10-04T07:25:36.120Z,31.27
2018-10-04T07:28:06.048Z,31.27
2018-10-04T07:30:35.847Z,31.03
2018-10-04T07:33:05.702Z,29.90
2018-10-04T07:35:35.470Z,27.97
2018-10-04T07:38:05.272Z,28.43
2018-10-04T07:40:35.084Z,31.13
2018-10-04T07:43:04.870Z,28.93
2018-10-04T07:45:34.707Z,29.00
2018-10-04T07:48:04.717Z,27.90
2018-10-04T07:50:34.545Z,27.70
2018-10-04T07:53:04.350Z,28.30
2018-10-04T07:55:34.133Z,28.73
2018-10-04T07:58:03.946Z,26.87
2018-10-04T08:00:33.820Z,25.30
2018-10-04T08:03:03.654Z,24.63
2018-10-04T08:05:33.470Z,22.70
2018-10-04T08:08:03.280Z,23.57
2018-10-04T08:10:33.038Z,21.40
2018-10-04T08:13:02.846Z,19.30
2018-10-04T08:15:32.731Z,19.87
2018-10-04T08:18:02.668Z,19.30
2018-10-04T08:20:32.524Z,19.20
2018-10-04T08:23:02.339Z,18.77
2018-10-04T08:25:32.164Z,19.07
2018-10-04T08:28:01.950Z,18.93
2018-10-04T08:30:31.730Z,17.97
2018-10-04T08:33:01.578Z,14.13
2018-10-04T08:35:31.417Z,15.10
2018-10-04T08:38:01.264Z,16.63
2018-10-04T08:40:31.066Z,15.57
2018-10-04T08:43:00.857Z,16.17
2018-10-04T08:45:31.086Z,14.60
2018-10-04T08:48:00.933Z,14.83
2018-10-04T08:50:31.008Z,15.37
2018-10-04T08:53:00.883Z,14.90
2018-10-04T08:55:37.619Z,14.43
2018-10-04T08:58:07.689Z,14.87
2018-10-04T09:00:37.538Z,15.60
2018-10-04T09:03:07.658Z,15.73
2018-10-04T09:05:37.489Z,16.67
2018-10-04T09:08:07.376Z,16.40
2018-10-04T09:10:37.203Z,14.77
2018-10-04T09:13:07.358Z,13.93
2018-10-04T09:15:37.284Z,13.87
2018-10-04T09:18:07.130Z,13.33
2018-10-04T09:20:37.006Z,12.50
2018-10-04T09:23:06.905Z,11.90
2018-10-04T09:25:37.060Z,11.83
2018-10-04T09:28:10.981Z,11.13
2018-10-04T09:30:45.971Z,11.60
2018-10-04T09:33:15.788Z,11.83
2018-10-04T09:35:45.723Z,11.63
2018-10-04T09:38:15.557Z,11.13
2018-10-04T09:40:45.388Z,10.57
2018-10-04T09:43:15.503Z,11.27
2018-10-04T09:45:45.771Z,10.97
2018-10-04T09:48:15.673Z,11.63
2018-10-04T09:50:45.731Z,11.50
2018-10-04T09:53:15.570Z,10.07
2018-10-04T09:55:50.695Z,10.23
2018-10-04T09:58:20.469Z,10.23
2018-10-04T10:00:55.548Z,9.80
2018-10-04T10:03:25.348Z,11.60
2018-10-04T10:05:55.214Z,10.33
2018-10-04T10:08:24.990Z,9.57
2018-10-04T10:10:54.804Z,9.93
2018-10-04T10:13:24.749Z,11.17
2018-10-04T10:15:54.553Z,11.20
2018-10-04T10:18:24.446Z,11.50
2018-10-04T10:20:54.262Z,10.47
2018-10-04T10:23:24.286Z,10.50
2018-10-04T10:25:54.246Z,10.33
2018-10-04T10:28:24.050Z,10.37
2018-10-04T10:30:53.854Z,9.80
2018-10-04T10:33:23.720Z,9.20
2018-10-04T10:35:53.539Z,10.00
2018-10-04T10:38:23.372Z,8.83
2018-10-04T10:40:53.456Z,8.90
2018-10-04T10:43:23.286Z,6.27
2018-10-04T10:45:53.259Z,7.30
2018-10-04T10:48:23.454Z,6.43
2018-10-04T10:50:53.590Z,5.93
2018-10-04T10:53:23.521Z,7.00
2018-10-04T10:55:53.477Z,7.37
2018-10-04T10:58:23.339Z,6.70
2018-10-04T11:00:53.180Z,5.97
2018-10-04T11:03:22.907Z,6.93
2018-10-04T11:05:52.672Z,6.70
2018-10-04T11:08:22.512Z,6.60
2018-10-04T11:10:52.470Z,6.33
2018-10-04T11:13:22.425Z,7.63
2018-10-04T11:15:52.223Z,7.00
2018-10-04T11:18:22.122Z,6.67
2018-10-04T11:20:52.005Z,6.80
2018-10-04T11:23:21.815Z,6.50
2018-10-04T11:25:51.665Z,6.33
2018-10-04T11:28:21.485Z,6.47
2018-10-04T11:30:51.321Z,6.53
2018-10-04T11:33:21.161Z,7.33
2018-10-04T11:35:50.959Z,6.53
2018-10-04T11:38:20.821Z,6.43
2018-10-04T11:40:50.754Z,5.80
2018-10-04T11:43:23.291Z,6.40
2018-10-04T11:45:53.369Z,6.30
2018-10-04T11:48:26.543Z,6.07
2018-10-04T11:50:56.545Z,5.57
2018-10-04T11:53:26.524Z,5.17
2018-10-04T11:55:56.382Z,5.83
2018-10-04T11:58:26.203Z,6.00
2018-10-04T12:00:56.093Z,5.77
2018-10-04T12:03:26.068Z,5.37
2018-10-04T12:05:55.989Z,4.90
2018-10-04T12:08:25.834Z,5.80
2018-10-04T12:10:55.648Z,4.57
2018-10-04T12:13:25.437Z,5.37
2018-10-04T12:15:55.425Z,4.37
2018-10-04T12:18:25.264Z,4.23
2018-10-04T12:20:55.347Z,4.13
2018-10-04T12:23:25.139Z,4.57
2018-10-04T12:25:54.910Z,4.83
2018-10-04T12:28:24.840Z,4.53
2018-10-04T12:30:54.709Z,4.70
2018-10-04T12:33:24.681Z,4.23
2018-10-04T12:35:54.532Z,4.43
2018-10-04T12:38:24.322Z,4.20
2018-10-04T12:40:54.261Z,3.87
2018-10-04T12:43:24.103Z,3.60
2018-10-04T12:45:54.205Z,3.80
2018-10-04T12:48:24.087Z,3.63
2018-10-04T12:50:54.100Z,4.20
2018-10-04T12:53:23.896Z,3.57
2018-10-04T12:55:53.695Z,3.50
2018-10-04T12:58:23.639Z,3.43
2018-10-04T13:00:53.411Z,2.80
2018-10-04T13:03:23.426Z,3.77
2018-10-04T13:05:53.233Z,3.67
2018-10-04T13:08:23.105Z,3.10
2018-10-04T13:10:53.147Z,3.00
2018-10-04T13:13:23.065Z,3.03
2018-10-04T13:15:52.950Z,3.10
2018-10-04T13:18:22.765Z,3.07
2018-10-04T13:20:52.733Z,3.20
2018-10-04T13:23:22.776Z,3.17
2018-10-04T13:25:52.624Z,3.27
2018-10-04T13:28:22.450Z,3.57
2018-10-04T13:30:52.334Z,3.23
2018-10-04T13:33:22.157Z,4.00
2018-10-04T13:35:52.086Z,3.87
2018-10-04T13:38:21.851Z,3.50
2018-10-04T13:40:51.714Z,3.20
2018-10-04T13:43:21.642Z,3.87
2018-10-04T13:45:51.551Z,3.70
2018-10-04T13:48:21.354Z,2.83
2018-10-04T13:50:51.147Z,2.63
2018-10-04T13:53:21.026Z,4.20
2018-10-04T13:55:50.916Z,3.50
2018-10-04T13:58:20.786Z,3.13
2018-10-04T14:00:50.597Z,3.70
2018-10-04T14:03:20.526Z,3.20
2018-10-04T14:05:50.396Z,2.90
2018-10-04T14:08:21.069Z,3.03
2018-10-04T14:10:50.857Z,3.00
2018-10-04T14:13:20.679Z,3.30
2018-10-04T14:15:50.916Z,3.30
2018-10-04T14:18:20.731Z,2.73
2018-10-04T14:20:50.583Z,2.30
2018-10-04T14:23:20.405Z,2.40
2018-10-04T14:25:50.543Z,2.60
2018-10-04T14:28:20.488Z,2.50
2018-10-04T14:30:50.504Z,2.40
2018-10-04T14:33:20.275Z,1.97
2018-10-04T14:35:50.125Z,2.37
2018-10-04T14:38:19.937Z,2.10
2018-10-04T14:40:49.705Z,2.10
2018-10-04T14:43:19.550Z,2.03
2018-10-04T14:45:49.446Z,1.70
2018-10-04T14:48:19.476Z,1.83
2018-10-04T14:50:49.247Z,2.00
2018-10-04T14:53:19.445Z,1.87
2018-10-04T14:55:49.319Z,1.43
2018-10-04T14:58:19.129Z,1.90
2018-10-04T15:00:48.898Z,1.90
2018-10-04T15:03:18.712Z,1.90
2018-10-04T15:05:48.688Z,2.20
2018-10-04T15:08:18.477Z,2.13
2018-10-04T15:10:48.331Z,2.17
2018-10-04T15:13:18.108Z,1.90
2018-10-04T15:15:47.923Z,2.33
2018-10-04T15:18:17.764Z,1.77
2018-10-04T15:20:47.562Z,2.07
2018-10-04T15:23:17.356Z,2.30
2018-10-04T15:25:47.182Z,2.87
2018-10-04T15:28:16.960Z,2.53
2018-10-04T15:30:46.740Z,3.00
2018-10-04T15:33:16.716Z,3.93
2018-10-04T15:35:46.656Z,2.47
2018-10-04T15:38:16.520Z,2.60
2018-10-04T15:40:46.360Z,2.43
2018-10-04T15:43:16.180Z,2.33
2018-10-04T15:45:45.951Z,2.70
2018-10-04T15:48:15.871Z,2.60
2018-10-04T15:50:45.632Z,2.90
2018-10-04T15:53:15.403Z,2.70
2018-10-04T15:55:45.166Z,3.00
2018-10-04T15:58:14.985Z,2.90
2018-10-04T16:00:45.027Z,3.00
2018-10-04T16:03:14.839Z,3.07
2018-10-04T16:05:44.695Z,2.90
2018-10-04T16:08:14.477Z,3.50
2018-10-04T16:10:44.470Z,3.00
2018-10-04T16:13:14.499Z,3.17
2018-10-04T16:15:49.323Z,3.37
2018-10-04T16:18:19.353Z,3.50
2018-10-04T16:20:49.131Z,3.40
2018-10-04T16:23:18.949Z,3.47
2018-10-04T16:25:48.745Z,3.70
2018-10-04T16:28:18.586Z,3.57
2018-10-04T16:30:48.448Z,3.73
2018-10-04T16:33:18.731Z,3.40
2018-10-04T16:35:48.531Z,3.60
2018-10-04T16:38:18.475Z,3.33
2018-10-04T16:40:48.438Z,3.83
2018-10-04T16:43:18.312Z,4.10
2018-10-04T16:45:48.135Z,4.33
2018-10-04T16:48:17.943Z,3.70
2018-10-04T16:50:47.791Z,3.57
2018-10-04T16:53:17.591Z,3.90
2018-10-04T16:55:47.568Z,3.73
2018-10-04T16:58:17.393Z,4.13
2018-10-04T17:00:47.376Z,3.37
2018-10-04T17:03:17.205Z,3.20
2018-10-04T17:05:47.221Z,2.80
2018-10-04T17:08:17.036Z,2.77
2018-10-04T17:10:46.838Z,3.20
2018-10-04T17:13:16.721Z,2.90
2018-10-04T17:15:46.619Z,3.33
2018-10-04T17:18:16.484Z,3.50
2018-10-04T17:20:46.367Z,4.60
2018-10-04T17:23:16.157Z,3.37
2018-10-04T17:25:45.976Z,3.30
2018-10-04T17:28:15.816Z,4.20
2018-10-04T17:30:45.662Z,3.67
2018-10-04T17:33:15.482Z,4.07
2018-10-04T17:35:45.425Z,3.90
2018-10-04T17:38:15.396Z,3.70
2018-10-04T17:40:45.165Z,4.10
2018-10-04T17:43:15.212Z,4.80
2018-10-04T17:45:45.024Z,4.63
2018-10-04T17:48:14.978Z,5.10
2018-10-04T17:50:44.763Z,4.87
2018-10-04T17:53:14.547Z,4.53
2018-10-04T17:55:44.350Z,4.50
2018-10-04T17:58:14.190Z,4.87
2018-10-04T18:00:44.261Z,4.90
2018-10-04T18:03:14.102Z,4.40
2018-10-04T18:05:43.941Z,4.13
2018-10-04T18:08:13.770Z,4.00
2018-10-04T18:10:45.344Z,3.80
2018-10-04T18:13:15.262Z,3.87
2018-10-04T18:15:45.060Z,3.73
2018-10-04T18:18:14.866Z,4.30
2018-10-04T18:20:44.662Z,4.47
2018-10-04T18:23:14.436Z,4.47
2018-10-04T18:25:44.242Z,4.60
2018-10-04T18:28:14.065Z,4.30
2018-10-04T18:30:43.865Z,5.20
2018-10-04T18:33:13.692Z,5.17
2018-10-04T18:35:43.690Z,5.73
2018-10-04T18:38:13.546Z,6.30
2018-10-04T18:40:43.374Z,6.10
2018-10-04T18:43:13.244Z,6.77
2018-10-04T18:45:43.083Z,6.00
2018-10-04T18:48:13.392Z,5.53
2018-10-04T18:50:43.208Z,5.07
2018-10-04T18:53:13.074Z,5.13
2018-10-04T18:55:43.074Z,5.23
2018-10-04T18:58:12.908Z,5.30
2018-10-04T19:00:42.862Z,5.30
2018-10-04T19:03:12.668Z,5.43
2018-10-04T19:05:42.546Z,4.90
2018-10-04T19:08:12.577Z,5.50
2018-10-04T19:11:21.896Z,6.03
2018-10-04T19:13:51.728Z,6.27
2018-10-04T19:16:21.598Z,5.47
2018-10-04T19:18:51.432Z,6.13
2018-10-04T19:21:21.305Z,5.10
2018-10-04T19:23:52.012Z,5.40
2018-10-04T19:26:21.870Z,5.93
2018-10-04T19:28:51.642Z,5.27
2018-10-04T19:31:21.512Z,6.27
2018-10-04T19:33:51.417Z,5.57
2018-10-04T19:36:21.255Z,5.43
2018-10-04T19:38:51.282Z,5.77
2018-10-04T19:41:21.195Z,5.80
2018-10-04T19:43:51.066Z,6.23
2018-10-04T19:46:20.933Z,6.17
2018-10-04T19:48:50.708Z,5.70
2018-10-04T19:51:20.537Z,6.03
2018-10-04T19:53:50.308Z,6.03
2018-10-04T19:56:20.116Z,7.60
2018-10-04T19:58:50.068Z,6.97
2018-10-04T20:01:19.892Z,7.50
2018-10-04T20:03:49.856Z,6.90
2018-10-04T20:06:19.795Z,6.80
2018-10-04T20:08:49.654Z,7.30
2018-10-04T20:14:55.842Z,7.23
2018-10-04T20:17:25.674Z,6.77
2018-10-04T20:19:55.482Z,6.47
2018-10-04T20:22:25.302Z,6.77
2018-10-04T20:24:55.340Z,7.17
2018-10-04T20:27:25.121Z,6.70
2018-10-04T20:29:54.960Z,6.40
2018-10-04T20:32:24.754Z,7.23
2018-10-04T20:34:54.640Z,7.27
2018-10-04T20:37:24.876Z,8.07
2018-10-04T20:39:54.742Z,7.87
2018-10-04T20:42:24.649Z,8.13
2018-10-04T20:44:54.650Z,9.10
2018-10-04T20:47:25.102Z,7.67
2018-10-04T20:49:55.434Z,8.77
2018-10-04T20:52:25.618Z,8.00
2018-10-04T20:54:55.856Z,7.90
2018-10-04T20:57:25.746Z,7.23
2018-10-04T20:59:55.977Z,7.00
2018-10-04T21:02:25.959Z,7.70
2018-10-04T21:04:55.788Z,7.33
2018-10-04T21:07:25.695Z,7.93
2018-10-04T21:09:55.589Z,7.07
2018-10-04T21:16:01.847Z,7.70
2018-10-04T21:18:31.723Z,8.00
2018-10-04T21:21:01.626Z,7.37
2018-10-04T21:23:31.549Z,7.00
2018-10-04T21:26:01.392Z,7.27
2018-10-04T21:28:32.153Z,7.83
2018-10-04T21:31:01.937Z,8.27
2018-10-04T21:33:31.767Z,8.30
2018-10-04T21:36:01.655Z,8.10
2018-10-04T21:38:31.483Z,8.00
2018-10-04T21:41:01.419Z,7.80
2018-10-04T21:43:31.255Z,7.10
2018-10-04T21:46:01.172Z,7.70
2018-10-04T21:48:31.021Z,7.10
2018-10-04T21:51:00.809Z,7.27
2018-10-04T21:53:30.850Z,6.57
2018-10-04T21:56:00.650Z,6.90
2018-10-04T21:58:30.379Z,6.67
2018-10-04T22:01:03.965Z,6.43
2018-10-04T22:03:33.787Z,7.03
2018-10-04T22:06:03.699Z,7.20
2018-10-04T22:08:33.477Z,8.40
2018-10-04T22:11:03.353Z,8.03
2018-10-04T22:13:33.075Z,7.87
2018-10-04T22:16:02.797Z,7.67
2018-10-04T22:18:32.702Z,8.00
2018-10-04T22:21:02.919Z,7.63
2018-10-04T22:23:32.983Z,7.97
2018-10-04T22:26:03.338Z,7.97
2018-10-04T22:28:33.251Z,8.63
2018-10-04T22:31:03.049Z,8.67
2018-10-04T22:33:32.802Z,8.53
2018-10-04T22:36:02.931Z,8.23
2018-10-04T22:38:32.691Z,8.47
2018-10-04T22:41:02.502Z,8.40
2018-10-04T22:43:32.237Z,9.00
2018-10-04T22:46:01.993Z,8.13
2018-10-04T22:48:31.751Z,7.23
2018-10-04T22:51:01.480Z,7.27
2018-10-04T22:53:31.407Z,6.60
2018-10-04T22:56:01.460Z,6.83
2018-10-04T22:58:31.302Z,7.73
2018-10-04T23:01:01.041Z,7.30
2018-10-04T23:03:30.889Z,8.10
2018-10-04T23:06:00.686Z,7.97
2018-10-04T23:08:30.520Z,7.53
2018-10-04T23:11:00.386Z,7.80
2018-10-04T23:13:30.583Z,8.20
2018-10-04T23:16:00.598Z,8.17
2018-10-04T23:18:30.780Z,8.63
2018-10-04T23:21:00.598Z,7.63
2018-10-04T23:23:30.524Z,7.57
2018-10-04T23:26:00.419Z,7.80
2018-10-04T23:28:30.262Z,7.60
2018-10-04T23:31:00.282Z,8.07
2018-10-04T23:33:30.161Z,8.03
2018-10-04T23:36:00.077Z,7.77
2018-10-04T23:38:29.929Z,8.00
2018-10-04T23:40:59.848Z,7.63
2018-10-04T23:43:29.908Z,7.87
2018-10-04T23:45:59.879Z,8.07
2018-10-04T23:48:29.741Z,8.20
2018-10-04T23:50:59.680Z,7.97
2018-10-04T23:53:29.784Z,8.17
2018-10-04T23:55:59.820Z,8.20
2018-10-04T23:58:30.330Z,8.23
